Dades meteomassalio
Diari Summary for Abril 15, 2017 Units:  Metric    English   Both
« Previous Day
Next Day »
Diari Semanal Mensual Anual Personalitzat
  Maxima: Minima: Mijana:
Temperatura: -17.8 °C -11.4 °C -8.6 °C
Rosada: -17.8 °C -14.7 °C -13.7 °C
Humitat: Humidity % 44 % 55 %
Velocitat del vent: 0 km/h 0 km/h 24.9 km/h
Racha vent: 0 km/h - -
Vent:- - WNW
Pressio: 0 hPa 34395 hPa -
Pluja: 0 mm    
Historical Graphs
 
 
Tabular Data for Abril 15, 2017
Time Temperature Dew Point Pressure Wind Wind Speed Wind Gust Humidity Rainfall Rate (Hourly) solar Conditions
-17.8 °C -17.8 °C 0 hPa Calm     Humidity % 0 mm SolarRadiationWatts/m^2 W/m2 Conditions
00:03 -7.6 °C -14.6 °C 34395 hPa West 9 km/h 9 km/h 44 % 0 mm 0.0 W/m2 CLR
00:08 -7.5 °C -14.4 °C 34395 hPa Calm     44 % 0 mm 0.0 W/m2 CLR
00:13 -7.6 °C -14.3 °C 34395 hPa Calm     45 % 0 mm 0.0 W/m2 CLR
00:18 -7.8 °C -14.4 °C 34395 hPa Calm     46 % 0 mm 0.0 W/m2 CLR
00:23 -7.9 °C -14.3 °C 34405.1 hPa Calm     47 % 0 mm 0.0 W/m2 CLR
00:28 -8 °C -14.6 °C 34405.1 hPa WNW 11.9 km/h 11.9 km/h 46 % 0 mm 0.0 W/m2 CLR
00:33 -7.7 °C -14.6 °C 34405.1 hPa West 10.3 km/h 10.3 km/h 44 % 0 mm 0.0 W/m2 CLR
00:38 -7.4 °C -14.4 °C 34405.1 hPa Calm     44 % 0 mm 0.0 W/m2 CLR
00:43 -7.7 °C -14.2 °C 34405.1 hPa Calm     46 % 0 mm 0.0 W/m2 CLR
00:48 -7.9 °C -14.5 °C 34405.1 hPa Calm     46 % 0 mm 0.0 W/m2 CLR
00:53 -8.2 °C -14.3 °C 34418.7 hPa Calm     48 % 0 mm 0.0 W/m2 CLR
00:58 -8.4 °C -14.3 °C 34418.7 hPa Calm     49 % 0 mm 0.0 W/m2 CLR
01:03 -8.7 °C -14.4 °C 34418.7 hPa Calm     50 % 0 mm 0.0 W/m2 CLR
01:08 -8.8 °C -14.5 °C 34418.7 hPa NNW 20.8 km/h 20.8 km/h 51 % 0 mm 0.0 W/m2 CLR
01:13 -8.4 °C -14.6 °C 34428.8 hPa NW 10.3 km/h 10.3 km/h 48 % 0 mm 0.0 W/m2 CLR
01:18 -8.2 °C -14.6 °C 34428.8 hPa NW 11.9 km/h 11.9 km/h 47 % 0 mm 0.0 W/m2 CLR
01:23 -8.2 °C -14.3 °C 34428.8 hPa NW 15 km/h 15 km/h 48 % 0 mm 0.0 W/m2 CLR
01:28 -8.2 °C -14.3 °C 34428.8 hPa NW 15.6 km/h 15.6 km/h 49 % 0 mm 0.0 W/m2 CLR
01:33 -8.3 °C -14.3 °C 34428.8 hPa WNW 11.9 km/h 11.9 km/h 49 % 0 mm 0.0 W/m2 CLR
01:38 -8.3 °C -14.3 °C 34428.8 hPa WNW 11.9 km/h 11.9 km/h 49 % 0 mm 0.0 W/m2 CLR
01:43 -8.3 °C -14.2 °C 34428.8 hPa NW 9 km/h 9 km/h 50 % 0 mm 0.0 W/m2 CLR
01:48 -8.4 °C -14.2 °C 34428.8 hPa WNW 9 km/h 9 km/h 50 % 0 mm 0.0 W/m2 CLR
01:53 -8.4 °C -14.3 °C 34428.8 hPa Calm     50 % 0 mm 0.0 W/m2 CLR
01:58 -8.7 °C -14.3 °C 34428.8 hPa Calm     51 % 0 mm 0.0 W/m2 CLR
02:03 -8.9 °C -14.3 °C 34428.8 hPa Calm     52 % 0 mm 0.0 W/m2 CLR
02:08 -9.1 °C -14.4 °C 34428.8 hPa Calm     53 % 0 mm 0.0 W/m2 CLR
02:13 -9.2 °C -14.6 °C 34442.4 hPa Calm     53 % 0 mm 0.0 W/m2 CLR
02:18 -9.4 °C -14.6 °C 34442.4 hPa Calm     54 % 0 mm 0.0 W/m2 CLR
02:23 -9.6 °C -14.4 °C 34442.4 hPa WSW 2.6 km/h 2.6 km/h 56 % 0 mm 0.0 W/m2 CLR
02:28 -9.7 °C -14.5 °C 34442.4 hPa Calm     56 % 0 mm 0.0 W/m2 CLR
02:33 -9.8 °C -14.5 °C 34442.4 hPa Calm     57 % 0 mm 0.0 W/m2 CLR
02:38 -9.9 °C -14.5 °C 34442.4 hPa SW 11.9 km/h   58 % 0 mm 0.0 W/m2 CLR
02:43 -10 °C -14.6 °C 34442.4 hPa Calm     58 % 0 mm 0.0 W/m2 CLR
02:48 -10.1 °C -14.7 °C 34452.6 hPa Calm     57 % 0 mm 0.0 W/m2 CLR
02:53 -10.1 °C -14.7 °C 34442.4 hPa West 9 km/h 9 km/h 57 % 0 mm 0.0 W/m2 CLR
02:58 -9.7 °C -14.6 °C 34442.4 hPa West 9 km/h 9 km/h 55 % 0 mm 0.0 W/m2 CLR
03:03 -9.3 °C -14.6 °C 34442.4 hPa West 10.3 km/h 10.3 km/h 53 % 0 mm 0.0 W/m2 CLR
03:08 -9.3 °C -14.6 °C 34452.6 hPa West 20.9 km/h 20.9 km/h 53 % 0 mm 0.0 W/m2 CLR
03:13 -9.1 °C -14.4 °C 34452.6 hPa WNW 9 km/h 9 km/h 53 % 0 mm 0.0 W/m2 CLR
03:18 -9.2 °C -14.5 °C 34442.4 hPa SW 11.9 km/h 11.9 km/h 53 % 0 mm 0.0 W/m2 CLR
03:23 -9.3 °C -14.5 °C 34452.6 hPa SSW 7.7 km/h 7.7 km/h 54 % 0 mm 0.0 W/m2 CLR
03:28 -9.6 °C -14.5 °C 34452.6 hPa Calm     55 % 0 mm 0.0 W/m2 CLR
03:33 -9.6 °C -14.3 °C 34462.7 hPa West 9 km/h   57 % 0 mm 0.0 W/m2 CLR
03:38 -9.6 °C -14.1 °C 34452.6 hPa West 9 km/h   58 % 0 mm 0.0 W/m2 CLR
03:43 -9.6 °C -14.1 °C 34452.6 hPa West 9 km/h 9 km/h 58 % 0 mm 0.0 W/m2 CLR
03:48 -9.6 °C -14.1 °C 34462.7 hPa Calm     58 % 0 mm 0.0 W/m2 CLR
03:53 -9.6 °C -14 °C 34462.7 hPa West 23.8 km/h 23.8 km/h 59 % 0 mm 0.0 W/m2 CLR
03:58 -9.6 °C -14 °C 34462.7 hPa West 29.8 km/h 29.8 km/h 59 % 0 mm 0.0 W/m2 CLR
04:03 -9.6 °C -14 °C 34462.7 hPa West 17.9 km/h 17.9 km/h 59 % 0 mm 0.0 W/m2 CLR
04:08 -9.6 °C -14.1 °C 34476.3 hPa West 6 km/h 6 km/h 59 % 0 mm 0.0 W/m2 CLR
04:13 -9.7 °C -13.9 °C 34462.7 hPa Calm     60 % 0 mm 0.0 W/m2 CLR
04:18 -9.8 °C -13.9 °C 34462.7 hPa West 11.9 km/h 11.9 km/h 61 % 0 mm 0.0 W/m2 CLR
04:23 -9.8 °C -14 °C 34462.7 hPa WNW 23.8 km/h 23.8 km/h 61 % 0 mm 0.0 W/m2 CLR
04:28 -9.9 °C -13.9 °C 34476.3 hPa West 20.9 km/h 20.9 km/h 62 % 0 mm 0.0 W/m2 CLR
04:33 -9.9 °C -13.9 °C 34476.3 hPa WNW 10.3 km/h 10.3 km/h 62 % 0 mm 0.0 W/m2 CLR
04:38 -10 °C -14 °C 34476.3 hPa WNW 7.7 km/h 7.7 km/h 62 % 0 mm 0.0 W/m2 CLR
04:39 -10 °C -14 °C 34476.3 hPa WNW 7.7 km/h 7.7 km/h 62 % 0 mm 0.0 W/m2 CLR
04:44 -10.1 °C -13.9 °C 34476.3 hPa West 15 km/h 15 km/h 63 % 0 mm 0.0 W/m2 CLR
04:49 -10.1 °C -13.9 °C 34476.3 hPa West 9 km/h 9 km/h 63 % 0 mm 0.0 W/m2 CLR
04:54 -10.2 °C -14 °C 34476.3 hPa West 12.9 km/h 12.9 km/h 63 % 0 mm 0.0 W/m2 CLR
04:59 -10.2 °C -14.1 °C 34476.3 hPa West 17.9 km/h 17.9 km/h 63 % 0 mm 0.0 W/m2 CLR
05:04 -10.2 °C -13.9 °C 34476.3 hPa WSW 11.9 km/h 11.9 km/h 64 % 0 mm 0.0 W/m2 CLR
05:09 -10.3 °C -14 °C 34476.3 hPa West 5.1 km/h 5.1 km/h 64 % 0 mm 0.0 W/m2 CLR
05:14 -10.3 °C -14.1 °C 34476.3 hPa West 15 km/h 15 km/h 64 % 0 mm 0.0 W/m2 CLR
05:19 -10.4 °C -14.1 °C 34476.3 hPa West 12.9 km/h 12.9 km/h 64 % 0 mm 0.0 W/m2 CLR
05:24 -10.4 °C -14.1 °C 34476.3 hPa West 10.3 km/h 10.3 km/h 64 % 0 mm 0.0 W/m2 CLR
05:29 -10.4 °C -14.1 °C 34476.3 hPa Calm     65 % 0 mm 0.0 W/m2 CLR
05:34 -10.5 °C -14.1 °C 34486.4 hPa West 15 km/h 15 km/h 65 % 0 mm 0.0 W/m2 CLR
05:39 -10.5 °C -14.1 °C 34486.4 hPa West 11.9 km/h 11.9 km/h 65 % 0 mm 0.0 W/m2 CLR
05:44 -10.6 °C -14.2 °C 34486.4 hPa West 11.9 km/h 11.9 km/h 65 % 0 mm 0.0 W/m2 CLR
05:49 -10.7 °C -14.1 °C 34486.4 hPa West 9 km/h 9 km/h 66 % 0 mm 0.0 W/m2 CLR
05:54 -10.7 °C -14.1 °C 34486.4 hPa Calm     67 % 0 mm 0.0 W/m2 CLR
05:59 -10.8 °C -14.1 °C 34486.4 hPa Calm     67 % 0 mm 0.0 W/m2 CLR
06:04 -10.8 °C -14 °C 34486.4 hPa Calm     68 % 0 mm 0.0 W/m2 CLR
06:09 -10.9 °C -14.1 °C 34486.4 hPa Calm     68 % 0 mm 0.0 W/m2 CLR
06:14 -11 °C -14.2 °C 34486.4 hPa Calm     68 % 0 mm 0.0 W/m2 CLR
06:19 -11 °C -14.1 °C 34486.4 hPa Calm     69 % 0 mm 0.0 W/m2 CLR
06:24 -11.1 °C -14.1 °C 34486.4 hPa Calm     69 % 0 mm 0.0 W/m2 CLR
06:29 -11.1 °C -14.1 °C 34486.4 hPa Calm     70 % 0 mm 0.0 W/m2 CLR
06:34 -11.2 °C -14.1 °C 34486.4 hPa Calm     70 % 0 mm 0.0 W/m2 CLR
06:39 -11.2 °C -14.1 °C 34486.4 hPa Calm     70 % 0 mm 0.0 W/m2 CLR
06:44 -11.3 °C -14.1 °C 34486.4 hPa Calm     71 % 0 mm 0.0 W/m2 CLR
06:49 -11.3 °C -14.1 °C 34486.4 hPa WSW 9 km/h 9 km/h 71 % 0 mm 0.0 W/m2 CLR
06:54 -11.3 °C -14.2 °C 34486.4 hPa WSW 3.1 km/h   71 % 0 mm 0.0 W/m2 CLR
06:59 -11.3 °C -14.2 °C 34496.6 hPa Calm     71 % 0 mm 0.0 W/m2 CLR
07:04 -11.4 °C -14.2 °C 34496.6 hPa Calm     71 % 0 mm 0.0 W/m2 CLR
07:09 -11.4 °C -14.1 °C 34496.6 hPa Calm     72 % 0 mm 0.0 W/m2 CLR
07:14 -11.4 °C -14.2 °C 34486.4 hPa WSW 9 km/h 9 km/h 72 % 0 mm 0.0 W/m2 OVC
07:19 -11.4 °C -14.2 °C 34496.6 hPa Calm     72 % 0 mm 0.0 W/m2 OVC
07:24 -11.4 °C -14.2 °C 34496.6 hPa Calm     72 % 0 mm 0.0 W/m2 OVC
07:29 -11.4 °C -14.1 °C 34496.6 hPa WNW 12.9 km/h 12.9 km/h 72 % 0 mm 7.0 W/m2 BKN
07:34 -11.2 °C -14.1 °C 34496.6 hPa West 15 km/h 15 km/h 71 % 0 mm 12.0 W/m2 BKN
07:39 -11.1 °C -13.9 °C 34510.1 hPa WNW 10.3 km/h 10.3 km/h 71 % 0 mm 19.0 W/m2 BKN
07:44 -11.1 °C -14 °C 34510.1 hPa West 17.9 km/h 17.9 km/h 70 % 0 mm 26.0 W/m2 BKN
07:49 -11 °C -13.9 °C 34510.1 hPa West 12.9 km/h 12.9 km/h 70 % 0 mm 35.0 W/m2 BKN
07:54 -10.9 °C -13.9 °C 34510.1 hPa West 15 km/h 15 km/h 70 % 0 mm 47.0 W/m2 SCT
07:59 -10.9 °C -13.9 °C 34520.3 hPa WSW 9 km/h 9 km/h 70 % 0 mm 58.0 W/m2 SCT
08:04 -10.9 °C -13.8 °C 34520.3 hPa West 6 km/h 6 km/h 70 % 0 mm 65.0 W/m2 SCT
08:09 -10.9 °C -13.8 °C 34520.3 hPa West 23.8 km/h 23.8 km/h 70 % 0 mm 70.0 W/m2 FEW
08:14 -10.8 °C -13.9 °C 34520.3 hPa SW 11.9 km/h 11.9 km/h 69 % 0 mm 83.0 W/m2 FEW
08:15 -10.8 °C -13.9 °C 34520.3 hPa SW 10.3 km/h 10.3 km/h 69 % 0 mm 84.0 W/m2 FEW
08:20 -10.8 °C -13.9 °C 34520.3 hPa WSW 23.8 km/h 23.8 km/h 69 % 0 mm 102.0 W/m2 CLR
08:25 -10.8 °C -13.8 °C 34520.3 hPa WSW 18.2 km/h 18.2 km/h 69 % 0 mm 98.0 W/m2 CLR
08:30 -10.7 °C -13.8 °C 34533.8 hPa West 29.8 km/h 29.8 km/h 69 % 0 mm 93.0 W/m2 CLR
08:35 -10.7 °C -13.8 °C 34533.8 hPa West 12.9 km/h 12.9 km/h 69 % 0 mm 130.0 W/m2 CLR
08:40 -10.6 °C -13.7 °C 34533.8 hPa West 32.8 km/h 32.8 km/h 69 % 0 mm 171.0 W/m2 CLR
08:45 -10.6 °C -13.7 °C 34533.8 hPa West 15.6 km/h 15.6 km/h 69 % 0 mm 183.0 W/m2 CLR
08:50 -10.4 °C -13.7 °C 34533.8 hPa West 32.8 km/h 32.8 km/h 68 % 0 mm 213.0 W/m2 CLR
08:55 -10.4 °C -13.7 °C 34533.8 hPa WNW 41.7 km/h 41.7 km/h 68 % 0 mm 229.0 W/m2 CLR
09:00 -10.3 °C -13.7 °C 34533.8 hPa West 23.8 km/h 23.8 km/h 67 % 0 mm 162.0 W/m2 CLR
09:05 -10.3 °C -13.6 °C 34533.8 hPa WNW 28.5 km/h 28.5 km/h 67 % 0 mm 192.0 W/m2 CLR
09:10 -10.3 °C -13.6 °C 34533.8 hPa WNW 32.8 km/h 32.8 km/h 67 % 0 mm 234.0 W/m2 CLR
09:15 -10.3 °C -13.6 °C 34533.8 hPa WNW 25.9 km/h 25.9 km/h 67 % 0 mm 248.0 W/m2 CLR
09:20 -10.2 °C -13.5 °C 34533.8 hPa WNW 17.9 km/h 17.9 km/h 67 % 0 mm 253.0 W/m2 CLR
09:26 -10.1 °C -13.4 °C 34533.8 hPa WNW 47.6 km/h 47.6 km/h 67 % 0 mm 350.0 W/m2 CLR
09:31 -10 °C -13.5 °C 34533.8 hPa West 23.3 km/h 25.1 km/h 66 % 0 mm 334.0 W/m2 CLR
09:36 -10.1 °C -13.5 °C 34533.8 hPa NW 32.8 km/h 32.8 km/h 66 % 0 mm 251.0 W/m2 CLR
09:41 -10 °C -13.5 °C 34544 hPa WNW 25.9 km/h 25.9 km/h 66 % 0 mm 297.0 W/m2 CLR
09:46 -10 °C -13.5 °C 34544 hPa West 38.8 km/h 38.8 km/h 66 % 0 mm 274.0 W/m2 CLR
09:51 -9.9 °C -13.4 °C 34544 hPa WNW 29.8 km/h 29.8 km/h 66 % 0 mm 236.0 W/m2 CLR
09:56 -9.9 °C -13.4 °C 34544 hPa WNW 38.8 km/h 38.8 km/h 66 % 0 mm 288.0 W/m2 CLR
10:01 -9.9 °C -13.4 °C 34544 hPa WNW 44.7 km/h 44.7 km/h 66 % 0 mm 332.0 W/m2 CLR
10:06 -9.8 °C -13.3 °C 34544 hPa NW 32.8 km/h 32.8 km/h 66 % 0 mm 378.0 W/m2 CLR
10:11 -9.7 °C -13.3 °C 34544 hPa WNW 29.8 km/h 29.8 km/h 65 % 0 mm 404.0 W/m2 CLR
10:16 -9.6 °C -13.2 °C 34544 hPa WNW 29.8 km/h 29.8 km/h 65 % 0 mm 313.0 W/m2 CLR
10:21 -9.6 °C -13.4 °C 34544 hPa WNW 31.1 km/h 31.1 km/h 64 % 0 mm 253.0 W/m2 CLR
10:26 -9.7 °C -13.3 °C 34533.8 hPa WNW 35.7 km/h 35.7 km/h 65 % 0 mm 311.0 W/m2 CLR
10:31 -9.7 °C -13.3 °C 34533.8 hPa West 32.8 km/h 32.8 km/h 65 % 0 mm 285.0 W/m2 CLR
10:36 -9.6 °C -13.2 °C 34544 hPa West 41.7 km/h 41.7 km/h 65 % 0 mm 285.0 W/m2 CLR
10:41 -9.7 °C -13.3 °C 34544 hPa NW 29.8 km/h 29.8 km/h 65 % 0 mm 404.0 W/m2 CLR
10:46 -9.6 °C -13.3 °C 34544 hPa West 23.8 km/h 23.8 km/h 64 % 0 mm 283.0 W/m2 CLR
10:51 -9.5 °C -13.3 °C 34544 hPa WNW 35.7 km/h 35.7 km/h 64 % 0 mm 362.0 W/m2 CLR
10:56 -9.4 °C -13.2 °C 34544 hPa West 26.9 km/h 26.9 km/h 64 % 0 mm 415.0 W/m2 CLR
11:01 -9.3 °C -13.1 °C 34544 hPa WNW 6 km/h 6 km/h 64 % 0 mm 288.0 W/m2 CLR
11:06 -9.3 °C -13.2 °C 34533.8 hPa West 31.1 km/h 31.1 km/h 63 % 0 mm 285.0 W/m2 CLR
11:11 -9.3 °C -13.2 °C 34544 hPa West 26.9 km/h 26.9 km/h 63 % 0 mm 257.0 W/m2 CLR
11:16 -9.2 °C -13.1 °C 34533.8 hPa WNW 26.9 km/h 26.9 km/h 63 % 0 mm 380.0 W/m2 CLR
11:21 -9.1 °C -13.2 °C 34544 hPa West 44.7 km/h 44.7 km/h 62 % 0 mm 512.0 W/m2 CLR
11:26 -9 °C -13.2 °C 34544 hPa NW 29.8 km/h 29.8 km/h 61 % 0 mm 413.0 W/m2 CLR
11:31 -9 °C -13.1 °C 34533.8 hPa West 29.8 km/h 29.8 km/h 62 % 0 mm 473.0 W/m2 CLR
11:36 -8.9 °C -13 °C 34533.8 hPa WNW 23.8 km/h 23.8 km/h 62 % 0 mm 429.0 W/m2 CLR
11:41 -8.7 °C -13.1 °C 34533.8 hPa WNW 29.8 km/h 29.8 km/h 60 % 0 mm 471.0 W/m2 CLR
11:46 -8.7 °C -12.9 °C 34533.8 hPa WNW 35.7 km/h 35.7 km/h 61 % 0 mm 589.0 W/m2 CLR
11:51 -8.6 °C -12.9 °C 34533.8 hPa NNW 29.8 km/h 29.8 km/h 60 % 0 mm 403.0 W/m2 CLR
11:56 -8.7 °C -13.2 °C 34533.8 hPa West 29.8 km/h 29.8 km/h 59 % 0 mm 392.0 W/m2 CLR
12:01 -8.7 °C -13.1 °C 34533.8 hPa West 29.8 km/h 29.8 km/h 59 % 0 mm 367.0 W/m2 CLR
12:06 -8.6 °C -13.1 °C 34533.8 hPa West 32.8 km/h 32.8 km/h 59 % 0 mm 388.0 W/m2 CLR
12:11 -8.7 °C -13 °C 34533.8 hPa NW 11.9 km/h 11.9 km/h 60 % 0 mm 373.0 W/m2 CLR
12:16 -8.6 °C -13.2 °C 34520.3 hPa NNW 23.8 km/h 23.8 km/h 58 % 0 mm 348.0 W/m2 CLR
12:21 -8.4 °C -13 °C 34520.3 hPa NW 11.9 km/h 11.9 km/h 58 % 0 mm 360.0 W/m2 CLR
12:26 -8.2 °C -13 °C 34533.8 hPa WNW 23.8 km/h 23.8 km/h 57 % 0 mm 315.0 W/m2 CLR
12:31 -8.2 °C -13.1 °C 34520.3 hPa NW 29.8 km/h 29.8 km/h 56 % 0 mm 359.0 W/m2 CLR
12:36 -8.2 °C -13.3 °C 34533.8 hPa West 44.7 km/h 44.7 km/h 55 % 0 mm 383.0 W/m2 CLR
12:41 -8.2 °C -13.1 °C 34533.8 hPa NW 28.5 km/h 28.5 km/h 56 % 0 mm 436.0 W/m2 CLR
12:46 -8.1 °C -13.2 °C 34533.8 hPa NW 32.8 km/h 32.8 km/h 55 % 0 mm 457.0 W/m2 CLR
12:51 -8.1 °C -13.3 °C 34533.8 hPa NW 31.1 km/h 31.1 km/h 54 % 0 mm 554.0 W/m2 CLR
12:56 -7.8 °C -12.9 °C 34520.3 hPa West 29.8 km/h 29.8 km/h 55 % 0 mm 557.0 W/m2 CLR
12:57 -7.8 °C -12.9 °C 34520.3 hPa NW 17.9 km/h 17.9 km/h 55 % 0 mm 492.0 W/m2 CLR
13:02 -7.7 °C -13.1 °C 34520.3 hPa WNW 29.8 km/h 29.8 km/h 53 % 0 mm 446.0 W/m2 CLR
13:07 -7.7 °C -13.1 °C 34520.3 hPa NW 29.8 km/h 29.8 km/h 53 % 0 mm 557.0 W/m2 CLR
13:12 -7.8 °C -13 °C 34520.3 hPa NW 26.9 km/h 26.9 km/h 54 % 0 mm 469.0 W/m2 CLR
13:17 -7.8 °C -13 °C 34520.3 hPa WNW 32.8 km/h 32.8 km/h 54 % 0 mm 431.0 W/m2 CLR
13:22 -7.8 °C -13.2 °C 34520.3 hPa NW 47.6 km/h 47.6 km/h 53 % 0 mm 591.0 W/m2 CLR
13:27 -7.7 °C -12.9 °C 34520.3 hPa WNW 29.8 km/h 29.8 km/h 54 % 0 mm 512.0 W/m2 CLR
13:32 -7.6 °C -12.8 °C 34520.3 hPa NW 38.8 km/h 38.8 km/h 54 % 0 mm 752.0 W/m2 CLR
13:37 -7.6 °C -13 °C 34520.3 hPa WNW 29.8 km/h 29.8 km/h 53 % 0 mm 499.0 W/m2 CLR
13:42 -7.5 °C -12.9 °C 34510.1 hPa West 29.8 km/h 29.8 km/h 53 % 0 mm 468.0 W/m2 CLR
13:47 -7.3 °C -12.8 °C 34510.1 hPa West 20.9 km/h 20.9 km/h 53 % 0 mm 993.0 W/m2 CLR
13:52 -7.1 °C -12.8 °C 34510.1 hPa WNW 23.8 km/h 23.8 km/h 51 % 0 mm 921.0 W/m2 CLR
13:57 -7 °C -12.7 °C 34510.1 hPa NW 23.8 km/h 23.8 km/h 51 % 0 mm 891.0 W/m2 CLR
14:02 -6.9 °C -12.9 °C 34496.6 hPa NW 35.7 km/h 35.7 km/h 50 % 0 mm 881.0 W/m2 CLR
14:07 -7 °C -12.8 °C 34496.6 hPa NNW 32.8 km/h 32.8 km/h 51 % 0 mm 863.0 W/m2 CLR
14:12 -6.8 °C -12.8 °C 34496.6 hPa NNW 32.8 km/h 32.8 km/h 50 % 0 mm 870.0 W/m2 CLR
14:17 -6.8 °C -12.9 °C 34496.6 hPa West 31.1 km/h 31.1 km/h 49 % 0 mm 863.0 W/m2 CLR
14:22 -6.7 °C -12.7 °C 34496.6 hPa NW 9 km/h 9 km/h 50 % 0 mm 853.0 W/m2 CLR
14:27 -6.6 °C -12.7 °C 34486.4 hPa NW 32.8 km/h 32.8 km/h 49 % 0 mm 854.0 W/m2 CLR
14:32 -6.3 °C -12.7 °C 34486.4 hPa NNW 29.8 km/h 29.8 km/h 48 % 0 mm 849.0 W/m2 CLR
14:37 -6.3 °C -12.8 °C 34486.4 hPa WNW 35.7 km/h 35.7 km/h 47 % 0 mm 846.0 W/m2 CLR
14:42 -6.2 °C -12.9 °C 34486.4 hPa WNW 35.7 km/h 35.7 km/h 46 % 0 mm 846.0 W/m2 CLR
14:47 -6.3 °C -12.8 °C 34486.4 hPa West 9 km/h 9 km/h 47 % 0 mm 858.0 W/m2 CLR
14:52 -6.1 °C -12.9 °C 34486.4 hPa NW 32.8 km/h 32.8 km/h 45 % 0 mm 754.0 W/m2 CLR
14:57 -6 °C -12.9 °C 34476.3 hPa NW 44.7 km/h 44.7 km/h 45 % 0 mm 754.0 W/m2 CLR
15:02 -6 °C -12.9 °C 34486.4 hPa WNW 31.1 km/h 31.1 km/h 45 % 0 mm 304.0 W/m2 CLR
15:07 -6.2 °C -12.9 °C 34476.3 hPa NW 38.8 km/h 38.8 km/h 46 % 0 mm 594.0 W/m2 CLR
15:12 -6.1 °C -12.8 °C 34476.3 hPa NW 47.6 km/h 47.6 km/h 46 % 0 mm 594.0 W/m2 CLR
15:17 -6.2 °C -12.8 °C 34476.3 hPa NW 26.9 km/h 26.9 km/h 46 % 0 mm 355.0 W/m2 CLR
15:22 -6.1 °C -12.8 °C 34476.3 hPa North 36.2 km/h 36.2 km/h 46 % 0 mm 703.0 W/m2 CLR
15:27 -6.1 °C -12.6 °C 34476.3 hPa NW 31.1 km/h 31.1 km/h 47 % 0 mm 844.0 W/m2 CLR
15:32 -6.1 °C -12.7 °C 34476.3 hPa NW 32.8 km/h 32.8 km/h 46 % 0 mm 882.0 W/m2 CLR
15:37 -6.2 °C -12.7 °C 34462.7 hPa NW 28.5 km/h 28.5 km/h 47 % 0 mm 204.0 W/m2 CLR
15:42 -6 °C -12.7 °C 34462.7 hPa WNW 38.8 km/h 38.8 km/h 46 % 0 mm 793.0 W/m2 CLR
15:47 -5.9 °C -12.6 °C 34462.7 hPa NW 44.1 km/h 44.1 km/h 46 % 0 mm 784.0 W/m2 CLR
15:52 -5.8 °C -12.7 °C 34462.7 hPa NW 31.1 km/h 31.1 km/h 45 % 0 mm 786.0 W/m2 CLR
15:57 -5.7 °C -12.7 °C 34462.7 hPa NW 38.8 km/h 38.8 km/h 45 % 0 mm 779.0 W/m2 CLR
16:02 -5.7 °C -12.8 °C 34462.7 hPa NW 51.8 km/h 51.8 km/h 44 % 0 mm 761.0 W/m2 CLR
16:07 -5.7 °C -12.8 °C 34462.7 hPa WNW 41.7 km/h 41.7 km/h 44 % 0 mm 747.0 W/m2 CLR
16:12 -5.7 °C -12.4 °C 34452.6 hPa NNW 41.4 km/h 41.4 km/h 46 % 0 mm 742.0 W/m2 CLR
16:17 -5.7 °C -12.7 °C 34462.7 hPa NW 35.7 km/h 35.7 km/h 44 % 0 mm 761.0 W/m2 CLR
16:22 -5.7 °C -12.6 °C 34452.6 hPa NNW 47.6 km/h 47.6 km/h 45 % 0 mm 775.0 W/m2 CLR
16:27 -5.6 °C -12.7 °C 34452.6 hPa NNW 41.7 km/h 41.7 km/h 44 % 0 mm 635.0 W/m2 CLR
16:32 -5.6 °C -12.7 °C 34452.6 hPa NW 20.9 km/h 20.9 km/h 44 % 0 mm 316.0 W/m2 CLR
16:37 -5.8 °C -12.9 °C 34452.6 hPa NW 50.7 km/h 50.7 km/h 44 % 0 mm 322.0 W/m2 CLR
16:42 -6 °C -13.1 °C 34452.6 hPa North 38.8 km/h 38.8 km/h 44 % 0 mm 320.0 W/m2 CLR
16:47 -6.1 °C -13 °C 34452.6 hPa NNW 35.7 km/h 35.7 km/h 45 % 0 mm 313.0 W/m2 CLR
16:52 -6.2 °C -12.8 °C 34452.6 hPa NNW 33.6 km/h 33.6 km/h 46 % 0 mm 366.0 W/m2 CLR
16:57 -6.1 °C -12.8 °C 34452.6 hPa North 36.2 km/h 36.2 km/h 46 % 0 mm 650.0 W/m2 CLR
17:02 -5.8 °C -12.6 °C 34452.6 hPa NNW 68.6 km/h 68.6 km/h 46 % 0 mm 708.0 W/m2 CLR
17:07 -5.8 °C -12.9 °C 34452.6 hPa NW 53.6 km/h 53.6 km/h 44 % 0 mm 408.0 W/m2 CLR
17:12 -5.8 °C -12.9 °C 34452.6 hPa NNW 50.7 km/h 50.7 km/h 44 % 0 mm 585.0 W/m2 CLR
17:17 -6 °C -12.9 °C 34452.6 hPa NNW 46.7 km/h 46.7 km/h 45 % 0 mm 439.0 W/m2 CLR
17:22 -6.2 °C -13.1 °C 34452.6 hPa NW 50.7 km/h 50.7 km/h 45 % 0 mm 239.0 W/m2 CLR
17:27 -6.3 °C -13 °C 34452.6 hPa NNW 50.7 km/h 50.7 km/h 46 % 0 mm 267.0 W/m2 CLR
17:32 -6.3 °C -12.8 °C 34452.6 hPa NW 41.7 km/h 41.7 km/h 47 % 0 mm 343.0 W/m2 CLR
17:37 -6.2 °C -12.9 °C 34452.6 hPa WNW 44.7 km/h 44.7 km/h 46 % 0 mm 255.0 W/m2 CLR
17:42 -6.3 °C -12.9 °C 34452.6 hPa WNW 29.8 km/h 29.8 km/h 47 % 0 mm 218.0 W/m2 CLR
17:47 -6.4 °C -12.9 °C 34452.6 hPa WNW 35.7 km/h 35.7 km/h 47 % 0 mm 255.0 W/m2 CLR
17:52 -6.3 °C -12.9 °C 34442.4 hPa NNW 29.8 km/h 29.8 km/h 47 % 0 mm 236.0 W/m2 CLR
17:58 -6.3 °C -12.8 °C 34442.4 hPa NW 33.6 km/h 33.6 km/h 47 % 0 mm 329.0 W/m2 CLR
18:03 -6.3 °C -12.8 °C 34442.4 hPa NW 50.7 km/h 50.7 km/h 47 % 0 mm 563.0 W/m2 CLR
18:08 -6.2 °C -12.9 °C 34452.6 hPa NNW 53.6 km/h 53.6 km/h 46 % 0 mm 554.0 W/m2 CLR
18:13 -6.2 °C -13.1 °C 34452.6 hPa NW 53.6 km/h 53.6 km/h 45 % 0 mm 325.0 W/m2 CLR
18:18 -6.4 °C -13.1 °C 34452.6 hPa NNW 41.7 km/h 41.7 km/h 46 % 0 mm 202.0 W/m2 CLR
18:23 -6.6 °C -13.2 °C 34452.6 hPa NNW 38.8 km/h 38.8 km/h 46 % 0 mm 216.0 W/m2 CLR
18:28 -6.4 °C -13.1 °C 34452.6 hPa NW 36.2 km/h 36.2 km/h 46 % 0 mm 397.0 W/m2 CLR
18:33 -6.4 °C -13.1 °C 34452.6 hPa West 20.8 km/h 20.8 km/h 46 % 0 mm 86.0 W/m2 CLR
18:38 -6.6 °C -13.2 °C 34452.6 hPa WNW 20.9 km/h 20.9 km/h 46 % 0 mm 76.0 W/m2 CLR
18:43 -6.7 °C -13.3 °C 34452.6 hPa WNW 29.8 km/h 29.8 km/h 46 % 0 mm 67.0 W/m2 FEW
18:48 -6.7 °C -13.2 °C 34452.6 hPa West 31.1 km/h 31.1 km/h 47 % 0 mm 60.0 W/m2 FEW
18:53 -6.7 °C -13.2 °C 34452.6 hPa NW 26.9 km/h 26.9 km/h 47 % 0 mm 109.0 W/m2 FEW
18:58 -6.6 °C -13.2 °C 34462.7 hPa WNW 32.8 km/h 32.8 km/h 46 % 0 mm 276.0 W/m2 FEW
19:03 -6.4 °C -13.1 °C 34452.6 hPa WNW 33.6 km/h 33.6 km/h 46 % 0 mm 251.0 W/m2 CLR
19:08 -6.4 °C -13.1 °C 34462.7 hPa NNW 32.8 km/h 32.8 km/h 46 % 0 mm 230.0 W/m2 CLR
19:13 -6.4 °C -13.1 °C 34462.7 hPa NW 26.9 km/h 26.9 km/h 46 % 0 mm 221.0 W/m2 CLR
19:18 -6.4 °C -13.1 °C 34462.7 hPa NW 29.8 km/h 29.8 km/h 46 % 0 mm 190.0 W/m2 CLR
19:23 -6.6 °C -13.3 °C 34462.7 hPa NW 35.7 km/h 35.7 km/h 46 % 0 mm 163.0 W/m2 CLR
19:28 -6.7 °C -13.4 °C 34462.7 hPa NNW 44.7 km/h 44.7 km/h 46 % 0 mm 139.0 W/m2 CLR
19:33 -6.8 °C -13.3 °C 34462.7 hPa WNW 35.7 km/h 35.7 km/h 47 % 0 mm 88.0 W/m2 CLR
19:38 -6.8 °C -13.3 °C 34462.7 hPa WNW 29.8 km/h 29.8 km/h 47 % 0 mm 95.0 W/m2 CLR
19:43 -6.9 °C -13.4 °C 34452.6 hPa WNW 29.8 km/h 29.8 km/h 47 % 0 mm 44.0 W/m2 BKN
19:48 -7.1 °C -13.5 °C 34462.7 hPa WNW 50.7 km/h 50.7 km/h 47 % 0 mm 81.0 W/m2 FEW
19:53 -7.1 °C -13.4 °C 34462.7 hPa WNW 32.8 km/h 32.8 km/h 48 % 0 mm 67.0 W/m2 FEW
19:58 -7.1 °C -13.6 °C 34462.7 hPa NW 50.7 km/h 50.7 km/h 47 % 0 mm 51.0 W/m2 SCT
20:03 -7.2 °C -13.6 °C 34462.7 hPa NW 41.7 km/h 41.7 km/h 47 % 0 mm 44.0 W/m2 BKN
20:08 -7.2 °C -13.7 °C 34476.3 hPa NW 54.4 km/h 54.4 km/h 47 % 0 mm 35.0 W/m2 BKN
20:13 -7.3 °C -13.6 °C 34476.3 hPa WNW 38.8 km/h 38.8 km/h 48 % 0 mm 19.0 W/m2 BKN
20:18 -7.4 °C -13.7 °C 34476.3 hPa WNW 20.9 km/h 20.9 km/h 48 % 0 mm 14.0 W/m2 BKN
20:23 -7.6 °C -13.6 °C 34486.4 hPa WNW 36.2 km/h 36.2 km/h 49 % 0 mm 12.0 W/m2 BKN
20:28 -7.7 °C -13.6 °C 34486.4 hPa WNW 33.6 km/h 33.6 km/h 50 % 0 mm 11.0 W/m2 BKN
20:33 -7.7 °C -13.6 °C 34486.4 hPa WNW 29.8 km/h 29.8 km/h 50 % 0 mm 7.0 W/m2 BKN
20:38 -7.7 °C -13.7 °C 34496.6 hPa WNW 38.8 km/h 38.8 km/h 50 % 0 mm 0.0 W/m2 OVC
20:43 -7.8 °C -13.7 °C 34496.6 hPa NW 29.8 km/h 29.8 km/h 50 % 0 mm 0.0 W/m2 OVC
20:48 -7.8 °C -13.6 °C 34496.6 hPa WNW 23.3 km/h 23.3 km/h 51 % 0 mm 0.0 W/m2 OVC
20:53 -7.9 °C -13.6 °C 34496.6 hPa WNW 29.8 km/h 29.8 km/h 51 % 0 mm 0.0 W/m2 CLR
20:58 -7.9 °C -13.7 °C 34496.6 hPa WNW 18.2 km/h 18.2 km/h 51 % 0 mm 0.0 W/m2 CLR
21:03 -8 °C -13.7 °C 34510.1 hPa SW 29.8 km/h 29.8 km/h 51 % 0 mm 0.0 W/m2 CLR
21:08 -8.1 °C -13.8 °C 34510.1 hPa NW 44.7 km/h 44.7 km/h 51 % 0 mm 0.0 W/m2 CLR
21:13 -8.1 °C -14 °C 34510.1 hPa West 44.7 km/h 44.7 km/h 50 % 0 mm 0.0 W/m2 CLR
21:18 -8.2 °C -14 °C 34520.3 hPa West 44.7 km/h 44.7 km/h 50 % 0 mm 0.0 W/m2 CLR
21:23 -8.2 °C -14.1 °C 34533.8 hPa West 38.8 km/h 38.8 km/h 50 % 0 mm 0.0 W/m2 CLR
21:28 -8.3 °C -14.1 °C 34533.8 hPa WNW 50.7 km/h 50.7 km/h 50 % 0 mm 0.0 W/m2 CLR
21:33 -8.4 °C -14.2 °C 34533.8 hPa WNW 32.8 km/h 32.8 km/h 50 % 0 mm 0.0 W/m2 CLR
21:38 -8.4 °C -14.1 °C 34533.8 hPa WNW 33.6 km/h 33.6 km/h 51 % 0 mm 0.0 W/m2 CLR
21:43 -8.6 °C -14.2 °C 34544 hPa WNW 35.7 km/h 35.7 km/h 51 % 0 mm 0.0 W/m2 CLR
21:48 -8.7 °C -14.3 °C 34544 hPa WNW 26.9 km/h 26.9 km/h 51 % 0 mm 0.0 W/m2 CLR
21:53 -8.7 °C -14.2 °C 34554.1 hPa West 29.8 km/h 29.8 km/h 52 % 0 mm 0.0 W/m2 CLR
21:58 -8.8 °C -14.3 °C 34554.1 hPa WNW 26.9 km/h 26.9 km/h 52 % 0 mm 0.0 W/m2 CLR
22:03 -8.8 °C -14.3 °C 34554.1 hPa NW 32.8 km/h 32.8 km/h 52 % 0 mm 0.0 W/m2 CLR
22:08 -8.9 °C -14.2 °C 34567.7 hPa West 9 km/h 9 km/h 53 % 0 mm 0.0 W/m2 CLR
22:10 -8.9 °C -14.2 °C 34567.7 hPa NW 20.8 km/h 20.8 km/h 53 % 0 mm 0.0 W/m2 CLR
22:15 -8.9 °C -14.2 °C 34567.7 hPa WNW 6 km/h 6 km/h 53 % 0 mm 0.0 W/m2 CLR
22:20 -9 °C -14.3 °C 34567.7 hPa WNW 23.3 km/h 23.3 km/h 53 % 0 mm 0.0 W/m2 CLR
22:25 -9 °C -14.3 °C 34577.8 hPa WNW 32.8 km/h 32.8 km/h 53 % 0 mm 0.0 W/m2 CLR
22:30 -9.1 °C -14.2 °C 34577.8 hPa NW 32.8 km/h 32.8 km/h 54 % 0 mm 0.0 W/m2 CLR
22:35 -9.1 °C -14.3 °C 34577.8 hPa WNW 44.7 km/h 44.7 km/h 54 % 0 mm 0.0 W/m2 CLR
22:40 -9.1 °C -14.3 °C 34577.8 hPa NW 50.7 km/h 50.7 km/h 54 % 0 mm 0.0 W/m2 CLR
22:45 -9.2 °C -14.3 °C 34577.8 hPa WNW 38.8 km/h 38.8 km/h 54 % 0 mm 0.0 W/m2 CLR
22:50 -9.3 °C -14.3 °C 34577.8 hPa WNW 44.7 km/h 44.7 km/h 55 % 0 mm 0.0 W/m2 CLR
22:55 -9.3 °C -14.3 °C 34577.8 hPa WNW 44.1 km/h 44.1 km/h 55 % 0 mm 0.0 W/m2 CLR
23:00 -9.3 °C -14.3 °C 34577.8 hPa WNW 57 km/h 57 km/h 55 % 0 mm 0.0 W/m2 CLR
23:05 -9.3 °C -14.3 °C 34577.8 hPa West 44.7 km/h 44.7 km/h 55 % 0 mm 0.0 W/m2 CLR
23:10 -9.3 °C -14.3 °C 34591.4 hPa NW 53.6 km/h 53.6 km/h 55 % 0 mm 0.0 W/m2 CLR
23:15 -9.4 °C -14.2 °C 34591.4 hPa WNW 44.7 km/h 44.7 km/h 56 % 0 mm 0.0 W/m2 CLR
23:20 -9.4 °C -14.3 °C 34601.5 hPa NW 38.8 km/h 38.8 km/h 56 % 0 mm 0.0 W/m2 CLR
23:25 -9.5 °C -14.3 °C 34601.5 hPa WNW 41.7 km/h 41.7 km/h 56 % 0 mm 0.0 W/m2 CLR
23:30 -9.6 °C -14.4 °C 34601.5 hPa NNW 44.7 km/h 44.7 km/h 56 % 0 mm 0.0 W/m2 CLR
23:35 -9.6 °C -14.4 °C 34591.4 hPa WNW 38.8 km/h 38.8 km/h 56 % 0 mm 0.0 W/m2 CLR
23:40 -9.6 °C -14.3 °C 34577.8 hPa WNW 59.5 km/h 59.5 km/h 57 % 0 mm 0.0 W/m2 CLR
23:45 -9.6 °C -14.4 °C 34577.8 hPa WNW 57 km/h 57 km/h 56 % 0 mm 0.0 W/m2 CLR
23:50 -9.6 °C -14.4 °C 34577.8 hPa West 44.7 km/h 44.7 km/h 56 % 0 mm 0.0 W/m2 CLR
23:55 -9.6 °C -14.4 °C 34591.4 hPa West 56.6 km/h 56.6 km/h 56 % 0 mm 0.0 W/m2 CLR
Lo Temps de Massalio
Compliments of Weather Underground - 1.25 mb